sensor_id;sensor_type;location;lat;lon;timestamp;P1;durP1;ratioP1;P2;durP2;ratioP2
40256;SDS011;25977;45.462;9.210;2023-04-10T00:01:36;5.60;;;3.28;;
40256;SDS011;25977;45.462;9.210;2023-04-10T00:04:02;2.88;;;2.67;;
40256;SDS011;25977;45.462;9.210;2023-04-10T00:06:28;3.42;;;3.22;;
40256;SDS011;25977;45.462;9.210;2023-04-10T00:08:56;2.92;;;2.72;;
40256;SDS011;25977;45.462;9.210;2023-04-10T00:11:25;3.08;;;2.88;;
40256;SDS011;25977;45.462;9.210;2023-04-10T00:13:51;3.15;;;2.95;;
40256;SDS011;25977;45.462;9.210;2023-04-10T00:16:17;3.25;;;3.05;;
40256;SDS011;25977;45.462;9.210;2023-04-10T00:18:43;3.33;;;2.92;;
40256;SDS011;25977;45.462;9.210;2023-04-10T00:21:08;3.30;;;3.00;;
40256;SDS011;25977;45.462;9.210;2023-04-10T00:23:34;2.90;;;2.70;;
40256;SDS011;25977;45.462;9.210;2023-04-10T00:26:01;4.50;;;3.13;;
40256;SDS011;25977;45.462;9.210;2023-04-10T00:28:26;2.90;;;2.70;;
40256;SDS011;25977;45.462;9.210;2023-04-10T00:30:52;4.22;;;3.08;;
40256;SDS011;25977;45.462;9.210;2023-04-10T00:33:18;3.17;;;2.90;;
40256;SDS011;25977;45.462;9.210;2023-04-10T00:35:43;9.35;;;4.18;;
40256;SDS011;25977;45.462;9.210;2023-04-10T00:38:09;2.55;;;2.40;;
40256;SDS011;25977;45.462;9.210;2023-04-10T00:40:35;2.78;;;2.40;;
40256;SDS011;25977;45.462;9.210;2023-04-10T00:43:00;3.10;;;2.90;;
40256;SDS011;25977;45.462;9.210;2023-04-10T00:45:26;2.80;;;2.60;;
40256;SDS011;25977;45.462;9.210;2023-04-10T00:47:52;5.22;;;2.90;;
40256;SDS011;25977;45.462;9.210;2023-04-10T00:50:19;3.20;;;3.00;;
40256;SDS011;25977;45.462;9.210;2023-04-10T00:52:47;2.78;;;2.58;;
40256;SDS011;25977;45.462;9.210;2023-04-10T00:55:13;2.97;;;2.78;;
40256;SDS011;25977;45.462;9.210;2023-04-10T00:57:43;2.38;;;2.28;;
40256;SDS011;25977;45.462;9.210;2023-04-10T01:02:39;2.40;;;2.20;;
40256;SDS011;25977;45.462;9.210;2023-04-10T01:05:05;2.85;;;2.60;;
40256;SDS011;25977;45.462;9.210;2023-04-10T01:07:46;3.10;;;2.90;;
40256;SDS011;25977;45.462;9.210;2023-04-10T01:10:20;3.38;;;3.08;;
40256;SDS011;25977;45.462;9.210;2023-04-10T01:15:36;2.53;;;2.33;;
40256;SDS011;25977;45.462;9.210;2023-04-10T01:20:48;3.67;;;3.38;;
40256;SDS011;25977;45.462;9.210;2023-04-10T01:26:30;4.70;;;2.58;;
40256;SDS011;25977;45.462;9.210;2023-04-10T01:29:16;2.88;;;2.67;;
40256;SDS011;25977;45.462;9.210;2023-04-10T01:31:54;3.25;;;3.05;;
40256;SDS011;25977;45.462;9.210;2023-04-10T01:34:31;2.88;;;2.67;;
40256;SDS011;25977;45.462;9.210;2023-04-10T01:37:04;3.55;;;3.25;;
40256;SDS011;25977;45.462;9.210;2023-04-10T01:39:36;2.75;;;2.55;;
40256;SDS011;25977;45.462;9.210;2023-04-10T01:42:06;3.03;;;2.80;;
40256;SDS011;25977;45.462;9.210;2023-04-10T01:44:40;2.80;;;2.60;;
40256;SDS011;25977;45.462;9.210;2023-04-10T01:47:07;5.50;;;2.75;;
40256;SDS011;25977;45.462;9.210;2023-04-10T01:49:33;3.58;;;2.85;;
40256;SDS011;25977;45.462;9.210;2023-04-10T01:52:06;4.13;;;2.63;;
40256;SDS011;25977;45.462;9.210;2023-04-10T01:54:33;2.85;;;2.65;;
40256;SDS011;25977;45.462;9.210;2023-04-10T01:57:01;3.22;;;3.03;;
40256;SDS011;25977;45.462;9.210;2023-04-10T01:59:31;3.40;;;2.90;;
40256;SDS011;25977;45.462;9.210;2023-04-10T02:01:57;3.58;;;3.28;;
40256;SDS011;25977;45.462;9.210;2023-04-10T02:04:24;3.08;;;2.78;;
40256;SDS011;25977;45.462;9.210;2023-04-10T02:15:02;3.28;;;2.97;;
40256;SDS011;25977;45.462;9.210;2023-04-10T02:17:30;3.28;;;2.97;;
40256;SDS011;25977;45.462;9.210;2023-04-10T02:19:59;3.38;;;3.15;;
40256;SDS011;25977;45.462;9.210;2023-04-10T02:22:26;3.80;;;3.50;;
40256;SDS011;25977;45.462;9.210;2023-04-10T02:24:53;2.92;;;2.72;;
40256;SDS011;25977;45.462;9.210;2023-04-10T02:27:28;3.30;;;3.03;;
40256;SDS011;25977;45.462;9.210;2023-04-10T02:29:58;3.58;;;3.28;;
40256;SDS011;25977;45.462;9.210;2023-04-10T02:32:25;3.08;;;2.88;;
40256;SDS011;25977;45.462;9.210;2023-04-10T02:34:51;2.95;;;2.75;;
40256;SDS011;25977;45.462;9.210;2023-04-10T02:37:17;3.28;;;3.05;;
40256;SDS011;25977;45.462;9.210;2023-04-10T02:39:43;4.15;;;3.60;;
40256;SDS011;25977;45.462;9.210;2023-04-10T02:42:09;3.45;;;3.15;;
40256;SDS011;25977;45.462;9.210;2023-04-10T02:44:35;3.30;;;3.00;;
40256;SDS011;25977;45.462;9.210;2023-04-10T02:47:01;4.13;;;3.00;;
40256;SDS011;25977;45.462;9.210;2023-04-10T02:49:28;2.95;;;2.75;;
40256;SDS011;25977;45.462;9.210;2023-04-10T02:51:56;3.35;;;3.05;;
40256;SDS011;25977;45.462;9.210;2023-04-10T02:54:22;3.05;;;2.75;;
40256;SDS011;25977;45.462;9.210;2023-04-10T02:56:47;3.97;;;3.72;;
40256;SDS011;25977;45.462;9.210;2023-04-10T02:59:13;2.97;;;2.78;;
40256;SDS011;25977;45.462;9.210;2023-04-10T03:01:39;6.97;;;3.95;;
40256;SDS011;25977;45.462;9.210;2023-04-10T03:04:05;3.42;;;3.20;;
40256;SDS011;25977;45.462;9.210;2023-04-10T03:06:36;3.55;;;3.25;;
40256;SDS011;25977;45.462;9.210;2023-04-10T03:09:01;3.25;;;3.05;;
40256;SDS011;25977;45.462;9.210;2023-04-10T03:11:27;3.67;;;3.28;;
40256;SDS011;25977;45.462;9.210;2023-04-10T03:13:53;3.60;;;3.30;;
40256;SDS011;25977;45.462;9.210;2023-04-10T03:16:20;5.97;;;3.40;;
40256;SDS011;25977;45.462;9.210;2023-04-10T03:18:46;4.22;;;3.92;;
40256;SDS011;25977;45.462;9.210;2023-04-10T03:21:12;3.47;;;3.25;;
40256;SDS011;25977;45.462;9.210;2023-04-10T03:23:37;3.45;;;3.15;;
40256;SDS011;25977;45.462;9.210;2023-04-10T03:26:03;5.22;;;4.72;;
40256;SDS011;25977;45.462;9.210;2023-04-10T03:28:34;3.53;;;3.22;;
40256;SDS011;25977;45.462;9.210;2023-04-10T03:31:01;10.60;;;3.05;;
40256;SDS011;25977;45.462;9.210;2023-04-10T03:33:30;4.45;;;3.05;;
40256;SDS011;25977;45.462;9.210;2023-04-10T03:35:58;3.08;;;2.88;;
40256;SDS011;25977;45.462;9.210;2023-04-10T03:38:24;3.80;;;3.50;;
40256;SDS011;25977;45.462;9.210;2023-04-10T03:40:51;3.50;;;3.22;;
40256;SDS011;25977;45.462;9.210;2023-04-10T03:43:19;3.30;;;3.10;;
40256;SDS011;25977;45.462;9.210;2023-04-10T03:45:45;3.53;;;3.22;;
40256;SDS011;25977;45.462;9.210;2023-04-10T03:48:12;3.42;;;3.10;;
40256;SDS011;25977;45.462;9.210;2023-04-10T03:50:43;3.13;;;2.88;;
40256;SDS011;25977;45.462;9.210;2023-04-10T03:53:09;5.03;;;3.13;;
40256;SDS011;25977;45.462;9.210;2023-04-10T03:55:35;3.83;;;3.47;;
40256;SDS011;25977;45.462;9.210;2023-04-10T03:58:03;4.57;;;3.08;;
40256;SDS011;25977;45.462;9.210;2023-04-10T04:00:29;3.63;;;2.92;;
40256;SDS011;25977;45.462;9.210;2023-04-10T04:03:07;3.55;;;3.25;;
40256;SDS011;25977;45.462;9.210;2023-04-10T04:05:49;5.05;;;3.03;;
40256;SDS011;25977;45.462;9.210;2023-04-10T04:08:39;4.63;;;2.53;;
40256;SDS011;25977;45.462;9.210;2023-04-10T04:11:24;3.55;;;3.28;;
40256;SDS011;25977;45.462;9.210;2023-04-10T04:13:55;3.85;;;3.30;;
40256;SDS011;25977;45.462;9.210;2023-04-10T04:16:46;7.10;;;3.28;;
40256;SDS011;25977;45.462;9.210;2023-04-10T04:19:41;3.97;;;3.60;;
40256;SDS011;25977;45.462;9.210;2023-04-10T04:22:30;3.85;;;3.10;;
40256;SDS011;25977;45.462;9.210;2023-04-10T04:25:06;4.50;;;3.67;;
40256;SDS011;25977;45.462;9.210;2023-04-10T04:27:49;4.85;;;3.42;;
40256;SDS011;25977;45.462;9.210;2023-04-10T04:30:34;4.15;;;3.78;;
40256;SDS011;25977;45.462;9.210;2023-04-10T04:33:18;3.33;;;3.03;;
40256;SDS011;25977;45.462;9.210;2023-04-10T04:36:22;3.50;;;3.20;;
40256;SDS011;25977;45.462;9.210;2023-04-10T04:38:57;4.32;;;3.92;;
40256;SDS011;25977;45.462;9.210;2023-04-10T04:41:58;5.32;;;3.72;;
40256;SDS011;25977;45.462;9.210;2023-04-10T04:44:47;3.85;;;3.35;;
40256;SDS011;25977;45.462;9.210;2023-04-10T04:47:16;3.40;;;3.10;;
40256;SDS011;25977;45.462;9.210;2023-04-10T04:50:05;4.15;;;3.85;;
40256;SDS011;25977;45.462;9.210;2023-04-10T04:53:01;4.57;;;3.83;;
40256;SDS011;25977;45.462;9.210;2023-04-10T04:55:38;3.30;;;3.05;;
40256;SDS011;25977;45.462;9.210;2023-04-10T04:58:21;3.95;;;3.55;;
40256;SDS011;25977;45.462;9.210;2023-04-10T05:01:07;3.15;;;2.95;;
40256;SDS011;25977;45.462;9.210;2023-04-10T05:03:51;5.03;;;3.67;;
40256;SDS011;25977;45.462;9.210;2023-04-10T05:06:35;4.00;;;3.80;;
40256;SDS011;25977;45.462;9.210;2023-04-10T05:09:21;4.00;;;3.47;;
40256;SDS011;25977;45.462;9.210;2023-04-10T05:12:06;4.80;;;3.38;;
40256;SDS011;25977;45.462;9.210;2023-04-10T05:14:45;3.78;;;3.50;;
40256;SDS011;25977;45.462;9.210;2023-04-10T05:17:31;3.47;;;3.22;;
40256;SDS011;25977;45.462;9.210;2023-04-10T05:20:17;5.43;;;3.85;;
40256;SDS011;25977;45.462;9.210;2023-04-10T05:22:55;3.72;;;3.40;;
40256;SDS011;25977;45.462;9.210;2023-04-10T05:25:33;3.72;;;3.42;;
40256;SDS011;25977;45.462;9.210;2023-04-10T05:30:51;3.80;;;3.40;;
40256;SDS011;25977;45.462;9.210;2023-04-10T05:33:47;6.20;;;3.05;;
40256;SDS011;25977;45.462;9.210;2023-04-10T05:36:42;3.83;;;3.60;;
40256;SDS011;25977;45.462;9.210;2023-04-10T05:39:38;4.10;;;3.67;;
40256;SDS011;25977;45.462;9.210;2023-04-10T05:42:17;3.75;;;3.50;;
40256;SDS011;25977;45.462;9.210;2023-04-10T05:44:53;4.85;;;3.17;;
40256;SDS011;25977;45.462;9.210;2023-04-10T05:47:35;4.93;;;3.25;;
40256;SDS011;25977;45.462;9.210;2023-04-10T05:50:13;4.00;;;3.40;;
40256;SDS011;25977;45.462;9.210;2023-04-10T05:52:48;3.70;;;3.40;;
40256;SDS011;25977;45.462;9.210;2023-04-10T05:55:43;4.15;;;3.85;;
40256;SDS011;25977;45.462;9.210;2023-04-10T05:58:21;7.07;;;3.70;;
40256;SDS011;25977;45.462;9.210;2023-04-10T06:01:10;3.65;;;3.35;;
40256;SDS011;25977;45.462;9.210;2023-04-10T06:03:57;4.65;;;4.25;;
40256;SDS011;25977;45.462;9.210;2023-04-10T06:06:24;3.80;;;3.50;;
40256;SDS011;25977;45.462;9.210;2023-04-10T06:08:50;3.47;;;3.22;;
40256;SDS011;25977;45.462;9.210;2023-04-10T06:11:17;4.25;;;3.80;;
40256;SDS011;25977;45.462;9.210;2023-04-10T06:13:47;3.42;;;3.13;;
40256;SDS011;25977;45.462;9.210;2023-04-10T06:16:14;3.65;;;3.35;;
40256;SDS011;25977;45.462;9.210;2023-04-10T06:18:40;5.22;;;3.03;;
40256;SDS011;25977;45.462;9.210;2023-04-10T06:21:08;3.35;;;3.15;;
40256;SDS011;25977;45.462;9.210;2023-04-10T06:23:34;3.75;;;2.70;;
40256;SDS011;25977;45.462;9.210;2023-04-10T06:26:00;2.65;;;2.53;;
40256;SDS011;25977;45.462;9.210;2023-04-10T06:28:27;4.72;;;2.30;;
40256;SDS011;25977;45.462;9.210;2023-04-10T06:30:56;2.67;;;2.45;;
40256;SDS011;25977;45.462;9.210;2023-04-10T06:35:55;2.97;;;2.45;;
40256;SDS011;25977;45.462;9.210;2023-04-10T06:38:22;2.67;;;2.47;;
40256;SDS011;25977;45.462;9.210;2023-04-10T06:40:48;2.60;;;2.40;;
40256;SDS011;25977;45.462;9.210;2023-04-10T06:43:14;2.78;;;2.58;;
40256;SDS011;25977;45.462;9.210;2023-04-10T06:45:41;2.10;;;2.00;;
40256;SDS011;25977;45.462;9.210;2023-04-10T06:48:06;2.80;;;2.42;;
40256;SDS011;25977;45.462;9.210;2023-04-10T06:50:32;2.65;;;2.50;;
40256;SDS011;25977;45.462;9.210;2023-04-10T06:52:58;3.10;;;2.90;;
40256;SDS011;25977;45.462;9.210;2023-04-10T06:55:26;2.85;;;2.65;;
40256;SDS011;25977;45.462;9.210;2023-04-10T06:57:52;3.40;;;2.20;;
40256;SDS011;25977;45.462;9.210;2023-04-10T07:00:20;2.40;;;2.03;;
40256;SDS011;25977;45.462;9.210;2023-04-10T07:02:46;2.97;;;2.78;;
40256;SDS011;25977;45.462;9.210;2023-04-10T07:05:12;2.33;;;2.10;;
40256;SDS011;25977;45.462;9.210;2023-04-10T07:07:37;2.53;;;2.33;;
40256;SDS011;25977;45.462;9.210;2023-04-10T07:10:03;2.10;;;1.90;;
40256;SDS011;25977;45.462;9.210;2023-04-10T07:12:30;2.40;;;1.85;;
40256;SDS011;25977;45.462;9.210;2023-04-10T07:14:56;2.22;;;1.67;;
40256;SDS011;25977;45.462;9.210;2023-04-10T07:17:21;2.40;;;2.20;;
40256;SDS011;25977;45.462;9.210;2023-04-10T07:19:49;4.00;;;2.05;;
40256;SDS011;25977;45.462;9.210;2023-04-10T07:22:14;3.10;;;2.35;;
40256;SDS011;25977;45.462;9.210;2023-04-10T07:24:40;2.10;;;2.00;;
40256;SDS011;25977;45.462;9.210;2023-04-10T07:27:06;2.72;;;2.05;;
40256;SDS011;25977;45.462;9.210;2023-04-10T07:29:32;7.18;;;2.25;;
40256;SDS011;25977;45.462;9.210;2023-04-10T07:31:57;1.95;;;1.85;;
40256;SDS011;25977;45.462;9.210;2023-04-10T07:34:24;2.60;;;2.20;;
40256;SDS011;25977;45.462;9.210;2023-04-10T07:36:50;4.18;;;2.22;;
40256;SDS011;25977;45.462;9.210;2023-04-10T07:39:15;2.33;;;2.13;;
40256;SDS011;25977;45.462;9.210;2023-04-10T07:41:41;2.60;;;2.40;;
40256;SDS011;25977;45.462;9.210;2023-04-10T07:44:07;3.40;;;1.90;;
40256;SDS011;25977;45.462;9.210;2023-04-10T07:46:33;1.80;;;1.70;;
40256;SDS011;25977;45.462;9.210;2023-04-10T07:48:59;2.42;;;2.22;;
40256;SDS011;25977;45.462;9.210;2023-04-10T07:51:25;3.17;;;1.98;;
40256;SDS011;25977;45.462;9.210;2023-04-10T07:53:51;1.80;;;1.70;;
40256;SDS011;25977;45.462;9.210;2023-04-10T07:56:17;2.10;;;2.00;;
40256;SDS011;25977;45.462;9.210;2023-04-10T07:58:44;1.80;;;1.70;;
40256;SDS011;25977;45.462;9.210;2023-04-10T08:01:10;2.50;;;2.30;;
40256;SDS011;25977;45.462;9.210;2023-04-10T08:03:39;3.47;;;2.03;;
40256;SDS011;25977;45.462;9.210;2023-04-10T08:06:07;3.60;;;2.60;;
40256;SDS011;25977;45.462;9.210;2023-04-10T08:08:34;3.33;;;1.90;;
40256;SDS011;25977;45.462;9.210;2023-04-10T08:11:01;2.67;;;2.20;;
40256;SDS011;25977;45.462;9.210;2023-04-10T08:13:28;2.72;;;2.55;;
40256;SDS011;25977;45.462;9.210;2023-04-10T08:15:53;3.03;;;2.00;;
40256;SDS011;25977;45.462;9.210;2023-04-10T08:18:19;2.28;;;2.08;;
40256;SDS011;25977;45.462;9.210;2023-04-10T08:20:45;2.42;;;2.10;;
40256;SDS011;25977;45.462;9.210;2023-04-10T08:23:10;2.83;;;2.40;;
40256;SDS011;25977;45.462;9.210;2023-04-10T08:25:36;2.38;;;2.28;;
40256;SDS011;25977;45.462;9.210;2023-04-10T08:28:02;2.97;;;2.45;;
40256;SDS011;25977;45.462;9.210;2023-04-10T08:30:27;1.73;;;1.63;;
40256;SDS011;25977;45.462;9.210;2023-04-10T08:32:53;2.08;;;1.98;;
40256;SDS011;25977;45.462;9.210;2023-04-10T08:35:20;1.92;;;1.65;;
40256;SDS011;25977;45.462;9.210;2023-04-10T08:37:45;1.42;;;1.42;;
40256;SDS011;25977;45.462;9.210;2023-04-10T08:40:11;1.77;;;1.67;;
40256;SDS011;25977;45.462;9.210;2023-04-10T08:42:37;2.10;;;1.98;;
40256;SDS011;25977;45.462;9.210;2023-04-10T08:45:03;2.42;;;2.28;;
40256;SDS011;25977;45.462;9.210;2023-04-10T08:47:29;2.28;;;1.50;;
40256;SDS011;25977;45.462;9.210;2023-04-10T08:50:04;1.80;;;1.70;;
40256;SDS011;25977;45.462;9.210;2023-04-10T08:52:31;2.00;;;1.50;;
40256;SDS011;25977;45.462;9.210;2023-04-10T08:54:59;3.40;;;1.60;;
40256;SDS011;25977;45.462;9.210;2023-04-10T08:57:30;3.85;;;1.60;;
40256;SDS011;25977;45.462;9.210;2023-04-10T08:59:57;3.05;;;1.83;;
40256;SDS011;25977;45.462;9.210;2023-04-10T09:02:23;3.92;;;1.80;;
40256;SDS011;25977;45.462;9.210;2023-04-10T09:04:50;2.13;;;1.77;;
40256;SDS011;25977;45.462;9.210;2023-04-10T09:07:18;2.05;;;1.95;;
40256;SDS011;25977;45.462;9.210;2023-04-10T09:09:44;1.80;;;1.70;;
40256;SDS011;25977;45.462;9.210;2023-04-10T09:12:11;3.25;;;2.08;;
40256;SDS011;25977;45.462;9.210;2023-04-10T09:14:39;3.90;;;2.13;;
40256;SDS011;25977;45.462;9.210;2023-04-10T09:17:12;2.63;;;2.42;;
40256;SDS011;25977;45.462;9.210;2023-04-10T09:19:46;2.17;;;2.05;;
40256;SDS011;25977;45.462;9.210;2023-04-10T09:22:29;1.88;;;1.77;;
40256;SDS011;25977;45.462;9.210;2023-04-10T09:24:56;2.35;;;2.10;;
40256;SDS011;25977;45.462;9.210;2023-04-10T09:27:41;2.35;;;2.17;;
40256;SDS011;25977;45.462;9.210;2023-04-10T09:30:07;2.17;;;2.03;;
40256;SDS011;25977;45.462;9.210;2023-04-10T09:32:40;1.55;;;1.50;;
40256;SDS011;25977;45.462;9.210;2023-04-10T09:35:07;3.50;;;2.13;;
40256;SDS011;25977;45.462;9.210;2023-04-10T09:37:35;2.10;;;2.00;;
40256;SDS011;25977;45.462;9.210;2023-04-10T09:40:01;2.33;;;1.80;;
40256;SDS011;25977;45.462;9.210;2023-04-10T09:42:31;2.28;;;2.10;;
40256;SDS011;25977;45.462;9.210;2023-04-10T09:45:03;6.90;;;2.28;;
40256;SDS011;25977;45.462;9.210;2023-04-10T09:47:30;5.22;;;2.20;;
40256;SDS011;25977;45.462;9.210;2023-04-10T09:49:57;2.75;;;1.77;;
40256;SDS011;25977;45.462;9.210;2023-04-10T09:52:32;1.67;;;1.58;;
40256;SDS011;25977;45.462;9.210;2023-04-10T09:55:00;1.45;;;1.35;;
40256;SDS011;25977;45.462;9.210;2023-04-10T09:57:31;4.13;;;1.40;;
40256;SDS011;25977;45.462;9.210;2023-04-10T09:59:58;1.88;;;1.58;;
40256;SDS011;25977;45.462;9.210;2023-04-10T10:02:26;1.55;;;1.45;;
40256;SDS011;25977;45.462;9.210;2023-04-10T10:04:53;1.35;;;1.33;;
40256;SDS011;25977;45.462;9.210;2023-04-10T10:07:21;1.75;;;1.65;;
40256;SDS011;25977;45.462;9.210;2023-04-10T10:09:48;1.60;;;1.50;;
40256;SDS011;25977;45.462;9.210;2023-04-10T10:12:18;1.80;;;1.70;;
40256;SDS011;25977;45.462;9.210;2023-04-10T10:17:42;1.63;;;1.52;;
40256;SDS011;25977;45.462;9.210;2023-04-10T10:20:19;1.60;;;1.50;;
40256;SDS011;25977;45.462;9.210;2023-04-10T10:22:48;3.05;;;1.90;;
40256;SDS011;25977;45.462;9.210;2023-04-10T10:25:15;2.40;;;2.10;;
40256;SDS011;25977;45.462;9.210;2023-04-10T10:27:46;1.80;;;1.70;;
40256;SDS011;25977;45.462;9.210;2023-04-10T10:30:16;1.65;;;1.55;;
40256;SDS011;25977;45.462;9.210;2023-04-10T10:32:44;1.85;;;1.63;;
40256;SDS011;25977;45.462;9.210;2023-04-10T10:35:12;1.88;;;1.77;;
40256;SDS011;25977;45.462;9.210;2023-04-10T10:37:38;1.38;;;1.13;;
40256;SDS011;25977;45.462;9.210;2023-04-10T10:45:25;1.90;;;1.80;;
40256;SDS011;25977;45.462;9.210;2023-04-10T10:47:58;3.63;;;2.00;;
40256;SDS011;25977;45.462;9.210;2023-04-10T10:50:24;2.13;;;1.95;;
40256;SDS011;25977;45.462;9.210;2023-04-10T10:53:10;2.75;;;2.00;;
40256;SDS011;25977;45.462;9.210;2023-04-10T10:58:48;2.88;;;2.72;;
40256;SDS011;25977;45.462;9.210;2023-04-10T11:01:16;2.13;;;2.03;;
40256;SDS011;25977;45.462;9.210;2023-04-10T11:03:44;4.18;;;2.10;;
40256;SDS011;25977;45.462;9.210;2023-04-10T11:06:19;2.22;;;2.13;;
40256;SDS011;25977;45.462;9.210;2023-04-10T11:08:47;2.25;;;2.00;;
40256;SDS011;25977;45.462;9.210;2023-04-10T11:16:22;1.95;;;1.85;;
40256;SDS011;25977;45.462;9.210;2023-04-10T11:19:02;2.97;;;2.13;;
40256;SDS011;25977;45.462;9.210;2023-04-10T11:21:28;2.47;;;2.28;;
40256;SDS011;25977;45.462;9.210;2023-04-10T11:31:43;3.92;;;2.50;;
40256;SDS011;25977;45.462;9.210;2023-04-10T11:34:19;2.55;;;2.35;;
40256;SDS011;25977;45.462;9.210;2023-04-10T11:36:45;2.80;;;2.50;;
40256;SDS011;25977;45.462;9.210;2023-04-10T11:39:12;3.92;;;2.63;;
40256;SDS011;25977;45.462;9.210;2023-04-10T11:41:42;3.28;;;2.70;;
40256;SDS011;25977;45.462;9.210;2023-04-10T11:44:52;3.25;;;2.45;;
40256;SDS011;25977;45.462;9.210;2023-04-10T11:47:06;2.20;;;2.10;;
40256;SDS011;25977;45.462;9.210;2023-04-10T11:49:36;3.70;;;2.63;;
40256;SDS011;25977;45.462;9.210;2023-04-10T11:52:02;2.75;;;2.55;;
40256;SDS011;25977;45.462;9.210;2023-04-10T11:54:28;2.47;;;2.38;;
40256;SDS011;25977;45.462;9.210;2023-04-10T11:57:06;2.97;;;2.78;;
40256;SDS011;25977;45.462;9.210;2023-04-10T11:59:38;3.00;;;2.70;;
40256;SDS011;25977;45.462;9.210;2023-04-10T12:02:08;3.08;;;2.88;;
40256;SDS011;25977;45.462;9.210;2023-04-10T12:04:38;2.60;;;2.40;;
40256;SDS011;25977;45.462;9.210;2023-04-10T12:07:04;3.00;;;2.80;;
40256;SDS011;25977;45.462;9.210;2023-04-10T12:09:31;4.72;;;2.40;;
40256;SDS011;25977;45.462;9.210;2023-04-10T12:11:58;3.50;;;2.88;;
40256;SDS011;25977;45.462;9.210;2023-04-10T12:14:28;2.75;;;2.60;;
40256;SDS011;25977;45.462;9.210;2023-04-10T12:16:59;4.55;;;2.65;;
40256;SDS011;25977;45.462;9.210;2023-04-10T12:19:25;2.55;;;2.38;;
40256;SDS011;25977;45.462;9.210;2023-04-10T12:21:51;2.75;;;2.55;;
40256;SDS011;25977;45.462;9.210;2023-04-10T12:27:16;2.67;;;2.47;;
40256;SDS011;25977;45.462;9.210;2023-04-10T12:29:47;2.95;;;2.58;;
40256;SDS011;25977;45.462;9.210;2023-04-10T12:32:14;3.13;;;2.92;;
40256;SDS011;25977;45.462;9.210;2023-04-10T12:34:41;5.03;;;2.97;;
40256;SDS011;25977;45.462;9.210;2023-04-10T12:37:07;3.13;;;2.92;;
40256;SDS011;25977;45.462;9.210;2023-04-10T12:39:35;4.05;;;2.60;;
40256;SDS011;25977;45.462;9.210;2023-04-10T12:42:11;2.83;;;2.63;;
40256;SDS011;25977;45.462;9.210;2023-04-10T12:44:56;2.58;;;2.45;;
40256;SDS011;25977;45.462;9.210;2023-04-10T12:47:26;3.13;;;2.70;;
40256;SDS011;25977;45.462;9.210;2023-04-10T12:50:02;7.05;;;2.80;;
40256;SDS011;25977;45.462;9.210;2023-04-10T12:52:28;3.20;;;2.90;;
40256;SDS011;25977;45.462;9.210;2023-04-10T12:54:54;2.83;;;2.63;;
40256;SDS011;25977;45.462;9.210;2023-04-10T12:57:33;2.20;;;2.10;;
40256;SDS011;25977;45.462;9.210;2023-04-10T12:59:58;2.97;;;2.60;;
40256;SDS011;25977;45.462;9.210;2023-04-10T13:02:26;3.00;;;2.80;;
40256;SDS011;25977;45.462;9.210;2023-04-10T13:04:53;2.50;;;2.30;;
40256;SDS011;25977;45.462;9.210;2023-04-10T13:07:19;3.40;;;3.10;;
40256;SDS011;25977;45.462;9.210;2023-04-10T13:09:44;3.60;;;2.78;;
40256;SDS011;25977;45.462;9.210;2023-04-10T13:12:11;2.70;;;2.50;;
40256;SDS011;25977;45.462;9.210;2023-04-10T13:14:37;2.50;;;2.30;;
40256;SDS011;25977;45.462;9.210;2023-04-10T13:17:02;2.72;;;2.53;;
40256;SDS011;25977;45.462;9.210;2023-04-10T13:19:28;3.03;;;2.83;;
40256;SDS011;25977;45.462;9.210;2023-04-10T13:21:54;2.65;;;2.45;;
40256;SDS011;25977;45.462;9.210;2023-04-10T13:24:20;2.75;;;2.55;;
40256;SDS011;25977;45.462;9.210;2023-04-10T13:26:46;3.22;;;3.03;;
40256;SDS011;25977;45.462;9.210;2023-04-10T13:29:11;3.10;;;2.88;;
40256;SDS011;25977;45.462;9.210;2023-04-10T13:31:37;3.20;;;2.90;;
40256;SDS011;25977;45.462;9.210;2023-04-10T13:34:02;3.42;;;2.90;;
40256;SDS011;25977;45.462;9.210;2023-04-10T13:36:28;2.45;;;2.25;;
40256;SDS011;25977;45.462;9.210;2023-04-10T13:38:57;2.70;;;2.50;;
40256;SDS011;25977;45.462;9.210;2023-04-10T13:41:23;3.75;;;2.70;;
40256;SDS011;25977;45.462;9.210;2023-04-10T13:43:49;3.05;;;2.72;;
40256;SDS011;25977;45.462;9.210;2023-04-10T13:46:14;3.33;;;2.75;;
40256;SDS011;25977;45.462;9.210;2023-04-10T13:48:41;4.15;;;2.72;;
40256;SDS011;25977;45.462;9.210;2023-04-10T13:51:07;4.55;;;4.13;;
40256;SDS011;25977;45.462;9.210;2023-04-10T13:53:33;3.60;;;3.30;;
40256;SDS011;25977;45.462;9.210;2023-04-10T13:55:58;3.13;;;2.85;;
40256;SDS011;25977;45.462;9.210;2023-04-10T13:58:24;6.65;;;3.17;;
40256;SDS011;25977;45.462;9.210;2023-04-10T14:00:52;3.13;;;2.92;;
40256;SDS011;25977;45.462;9.210;2023-04-10T14:03:18;3.55;;;3.25;;
40256;SDS011;25977;45.462;9.210;2023-04-10T14:05:44;4.05;;;2.60;;
40256;SDS011;25977;45.462;9.210;2023-04-10T14:08:09;3.40;;;3.10;;
40256;SDS011;25977;45.462;9.210;2023-04-10T14:10:38;3.47;;;3.28;;
40256;SDS011;25977;45.462;9.210;2023-04-10T14:13:04;3.78;;;3.03;;
40256;SDS011;25977;45.462;9.210;2023-04-10T14:15:31;3.50;;;2.63;;
40256;SDS011;25977;45.462;9.210;2023-04-10T14:17:57;3.05;;;2.85;;
40256;SDS011;25977;45.462;9.210;2023-04-10T14:20:23;2.53;;;2.33;;
40256;SDS011;25977;45.462;9.210;2023-04-10T14:22:49;2.45;;;2.25;;
40256;SDS011;25977;45.462;9.210;2023-04-10T14:25:15;3.15;;;2.95;;
40256;SDS011;25977;45.462;9.210;2023-04-10T14:27:43;6.05;;;2.90;;
40256;SDS011;25977;45.462;9.210;2023-04-10T14:30:10;3.28;;;3.05;;
40256;SDS011;25977;45.462;9.210;2023-04-10T14:32:39;4.00;;;3.70;;
40256;SDS011;25977;45.462;9.210;2023-04-10T14:35:05;3.40;;;3.08;;
40256;SDS011;25977;45.462;9.210;2023-04-10T14:37:32;3.50;;;3.25;;
40256;SDS011;25977;45.462;9.210;2023-04-10T14:39:57;3.65;;;2.88;;
40256;SDS011;25977;45.462;9.210;2023-04-10T14:42:23;3.33;;;3.03;;
40256;SDS011;25977;45.462;9.210;2023-04-10T14:44:49;5.00;;;3.42;;
40256;SDS011;25977;45.462;9.210;2023-04-10T14:47:14;3.15;;;2.88;;
40256;SDS011;25977;45.462;9.210;2023-04-10T14:49:40;2.63;;;2.42;;
40256;SDS011;25977;45.462;9.210;2023-04-10T14:52:06;3.10;;;2.78;;
40256;SDS011;25977;45.462;9.210;2023-04-10T14:54:33;2.92;;;2.72;;
40256;SDS011;25977;45.462;9.210;2023-04-10T14:56:58;5.15;;;3.30;;
40256;SDS011;25977;45.462;9.210;2023-04-10T14:59:26;4.25;;;3.50;;
40256;SDS011;25977;45.462;9.210;2023-04-10T15:01:52;3.85;;;2.47;;
40256;SDS011;25977;45.462;9.210;2023-04-10T15:04:18;3.47;;;2.47;;
40256;SDS011;25977;45.462;9.210;2023-04-10T15:06:44;3.15;;;2.95;;
40256;SDS011;25977;45.462;9.210;2023-04-10T15:09:10;2.88;;;2.67;;
40256;SDS011;25977;45.462;9.210;2023-04-10T15:11:35;2.83;;;2.63;;
40256;SDS011;25977;45.462;9.210;2023-04-10T15:14:01;2.60;;;2.40;;
40256;SDS011;25977;45.462;9.210;2023-04-10T15:16:27;3.38;;;3.13;;
40256;SDS011;25977;45.462;9.210;2023-04-10T15:18:54;3.50;;;3.20;;
40256;SDS011;25977;45.462;9.210;2023-04-10T15:21:20;2.75;;;2.55;;
40256;SDS011;25977;45.462;9.210;2023-04-10T15:23:46;2.50;;;2.40;;
40256;SDS011;25977;45.462;9.210;2023-04-10T15:26:12;3.40;;;3.20;;
40256;SDS011;25977;45.462;9.210;2023-04-10T15:28:39;2.85;;;2.65;;
40256;SDS011;25977;45.462;9.210;2023-04-10T15:31:05;5.72;;;2.25;;
40256;SDS011;25977;45.462;9.210;2023-04-10T15:33:31;3.00;;;2.80;;
40256;SDS011;25977;45.462;9.210;2023-04-10T15:35:57;8.35;;;2.92;;
40256;SDS011;25977;45.462;9.210;2023-04-10T15:38:22;3.20;;;2.92;;
40256;SDS011;25977;45.462;9.210;2023-04-10T15:40:53;3.00;;;2.80;;
40256;SDS011;25977;45.462;9.210;2023-04-10T15:43:19;3.55;;;2.90;;
40256;SDS011;25977;45.462;9.210;2023-04-10T15:45:44;4.75;;;3.92;;
40256;SDS011;25977;45.462;9.210;2023-04-10T15:48:10;3.00;;;2.78;;
40256;SDS011;25977;45.462;9.210;2023-04-10T15:50:36;3.35;;;3.05;;
40256;SDS011;25977;45.462;9.210;2023-04-10T15:53:04;3.03;;;2.83;;
40256;SDS011;25977;45.462;9.210;2023-04-10T15:55:31;3.97;;;2.15;;